Time;durP1;ratioP1;P1;durP2;ratioP2;P2;SDS_P1;SDS_P2;PMS_P1;PMS_P2;Temp;Humidity;BMP_temperature;BMP_pressure;BME280_temperature;BME280_humidity;BME280_pressure;Samples;Min_cycle;Max_cycle;Signal;HPM_P1;HPM_P2
2023/08/10 00:03:58;;;;;;;;;;;;;;;14.20;100.00;101991.69;10505288;28;19947;-64
2023/08/10 00:09:00;;;;;;;;;;;;;;;14.22;100.00;101994.25;10506052;28;19928;-64
2023/08/10 00:14:03;;;;;;;;;;;;;;;14.32;100.00;101990.19;10505677;28;19932;-64
2023/08/10 00:19:05;;;;;;;;;;;;;;;14.38;100.00;101996.94;10505649;28;20003;-64
2023/08/10 00:24:08;;;;;;;;;;;;;;;14.26;100.00;102007.19;10505256;28;19975;-65
2023/08/10 00:29:10;;;;;;;;;;;;;;;14.50;100.00;102005.00;10505032;28;19924;-64
2023/08/10 00:34:12;;;;;;;;;;;;;;;14.46;100.00;102003.47;10504732;28;19931;-64
2023/08/10 00:39:14;;;;;;;;;;;;;;;14.43;100.00;102011.53;10504519;28;19928;-64
2023/08/10 00:44:17;;;;;;;;;;;;;;;14.51;100.00;102005.88;10504650;28;19924;-64
2023/08/10 00:49:19;;;;;;;;;;;;;;;14.54;100.00;102003.06;10504180;28;20298;-64
2023/08/10 00:54:21;;;;;;;;;;;;;;;14.54;100.00;102007.47;10504090;28;19925;-64
2023/08/10 00:59:24;;;;;;;;;;;;;;;14.56;100.00;102006.47;10501534;28;19925;-64
2023/08/10 01:04:26;;;;;;;;;;;;;;;14.72;100.00;102003.84;10502558;28;19924;-64
2023/08/10 01:09:40;;;;;;;;;;;;;;;14.54;100.00;102012.75;10503477;28;19924;-64
2023/08/10 01:14:51;;;;;;;;;;;;;;;14.64;100.00;102008.69;10502249;28;19924;-64
2023/08/10 01:19:53;;;;;;;;;;;;;;;14.55;100.00;102006.53;10503072;28;19925;-64
2023/08/10 01:25:00;;;;;;;;;;;;;;;14.67;100.00;102011.16;10501871;28;19931;-64
2023/08/10 01:30:03;;;;;;;;;;;;;;;14.79;100.00;102020.19;10501556;28;19931;-64
2023/08/10 01:35:06;;;;;;;;;;;;;;;14.62;100.00;102024.59;10502527;28;20382;-64
2023/08/10 01:40:09;;;;;;;;;;;;;;;14.63;100.00;102023.66;10501091;28;20380;-64
2023/08/10 01:45:12;;;;;;;;;;;;;;;14.57;100.00;102023.13;10502223;28;19924;-64
2023/08/10 01:50:15;;;;;;;;;;;;;;;14.56;100.00;102030.19;10501906;28;20422;-64
2023/08/10 01:55:18;;;;;;;;;;;;;;;14.55;100.00;102031.09;10500730;28;19931;-64
2023/08/10 02:00:20;;;;;;;;;;;;;;;14.59;100.00;102026.53;10500310;28;20011;-64
2023/08/10 02:05:23;;;;;;;;;;;;;;;14.50;100.00;102028.72;10500629;28;19924;-64
2023/08/10 02:10:25;;;;;;;;;;;;;;;14.45;100.00;102040.44;10500896;28;19932;-64
2023/08/10 02:15:27;;;;;;;;;;;;;;;14.48;100.00;102030.59;10500674;28;20287;-64
2023/08/10 02:20:29;;;;;;;;;;;;;;;14.49;100.00;102024.41;10483034;28;19925;-64
2023/08/10 02:25:31;;;;;;;;;;;;;;;14.44;100.00;102018.53;10500288;28;20379;-64
2023/08/10 02:30:34;;;;;;;;;;;;;;;14.16;100.00;102019.16;10500555;28;19925;-64
2023/08/10 02:35:36;;;;;;;;;;;;;;;14.20;100.00;102014.56;10499928;28;19960;-64
2023/08/10 02:40:38;;;;;;;;;;;;;;;14.25;100.00;102021.28;10499716;28;20290;-64
2023/08/10 02:45:41;;;;;;;;;;;;;;;14.07;100.00;102027.53;10498483;28;19925;-64
2023/08/10 02:50:43;;;;;;;;;;;;;;;14.03;100.00;102026.00;10499520;28;19964;-64
2023/08/10 02:55:45;;;;;;;;;;;;;;;14.08;100.00;102034.50;10498389;28;19935;-64
2023/08/10 03:00:48;;;;;;;;;;;;;;;14.00;100.00;102034.91;10499338;28;20022;-64
2023/08/10 03:05:50;;;;;;;;;;;;;;;13.97;100.00;102036.84;10499270;28;19924;-64
2023/08/10 03:10:53;;;;;;;;;;;;;;;14.02;100.00;102034.81;10499140;28;19925;-64
2023/08/10 03:15:55;;;;;;;;;;;;;;;14.01;100.00;102041.03;10498798;28;20275;-64
2023/08/10 03:20:57;;;;;;;;;;;;;;;13.95;100.00;102044.81;10498517;28;19925;-64
2023/08/10 03:26:00;;;;;;;;;;;;;;;13.81;100.00;102045.53;10498092;28;19924;-64
2023/08/10 03:31:02;;;;;;;;;;;;;;;13.83;100.00;102041.03;10498226;28;20389;-64
2023/08/10 03:36:05;;;;;;;;;;;;;;;13.83;100.00;102035.78;10498529;28;20176;-64
2023/08/10 03:41:07;;;;;;;;;;;;;;;13.96;100.00;102043.91;10497008;28;19931;-64
2023/08/10 03:46:09;;;;;;;;;;;;;;;13.95;100.00;102052.72;10498275;28;19925;-64
2023/08/10 03:51:11;;;;;;;;;;;;;;;14.00;100.00;102052.47;10498006;28;19929;-64
2023/08/10 03:56:14;;;;;;;;;;;;;;;13.65;100.00;102060.38;10498069;28;19924;-64
2023/08/10 04:01:16;;;;;;;;;;;;;;;13.92;100.00;102068.69;10497674;28;19925;-65
2023/08/10 04:06:18;;;;;;;;;;;;;;;13.78;100.00;102065.91;10497673;28;19925;-64
2023/08/10 04:11:20;;;;;;;;;;;;;;;13.69;100.00;102067.22;10497677;28;19924;-64
2023/08/10 04:16:23;;;;;;;;;;;;;;;13.68;100.00;102062.88;10497628;28;19924;-64
2023/08/10 04:21:25;;;;;;;;;;;;;;;13.56;100.00;102062.56;10497242;28;20458;-64
2023/08/10 04:26:27;;;;;;;;;;;;;;;13.61;100.00;102062.34;10497101;28;19924;-64
2023/08/10 04:31:29;;;;;;;;;;;;;;;13.48;100.00;102071.75;10497195;28;20303;-64
2023/08/10 04:36:33;;;;;;;;;;;;;;;13.62;100.00;102068.47;10503426;28;19930;-64
2023/08/10 04:41:35;;;;;;;;;;;;;;;13.61;100.00;102069.38;10504527;28;19974;-64
2023/08/10 04:46:37;;;;;;;;;;;;;;;13.49;100.00;102066.41;10504359;28;20371;-64
2023/08/10 04:51:39;;;;;;;;;;;;;;;13.45;100.00;102072.78;10504154;28;20337;-64
2023/08/10 04:56:42;;;;;;;;;;;;;;;13.60;100.00;102079.06;10504342;28;19925;-64
2023/08/10 05:01:44;;;;;;;;;;;;;;;13.74;100.00;102087.09;10503807;28;19947;-64
2023/08/10 05:06:46;;;;;;;;;;;;;;;13.67;100.00;102076.97;10503618;28;19971;-64
2023/08/10 05:11:49;;;;;;;;;;;;;;;13.82;100.00;102077.97;10503479;28;19928;-64
2023/08/10 05:16:51;;;;;;;;;;;;;;;13.92;100.00;102081.84;10503290;28;19943;-64
2023/08/10 05:21:53;;;;;;;;;;;;;;;14.19;100.00;102071.66;10503008;28;20007;-64
2023/08/10 05:26:55;;;;;;;;;;;;;;;14.37;100.00;102061.09;10502925;28;20022;-64
2023/08/10 05:31:58;;;;;;;;;;;;;;;14.39;100.00;102060.09;10502967;28;19931;-64
2023/08/10 05:37:00;;;;;;;;;;;;;;;14.28;100.00;102068.53;10502676;28;19977;-64
2023/08/10 05:42:02;;;;;;;;;;;;;;;14.45;100.00;102066.78;10502813;28;20014;-64
2023/08/10 05:47:05;;;;;;;;;;;;;;;14.62;100.00;102074.66;10501883;28;19932;-64
2023/08/10 05:52:08;;;;;;;;;;;;;;;14.77;100.00;102069.50;10501985;28;19925;-64
2023/08/10 05:57:10;;;;;;;;;;;;;;;14.73;100.00;102068.00;10501949;28;19925;-64
2023/08/10 06:02:12;;;;;;;;;;;;;;;14.63;100.00;102072.91;10501519;28;19931;-64
2023/08/10 06:07:15;;;;;;;;;;;;;;;14.75;100.00;102081.94;10500114;28;19935;-68
2023/08/10 06:12:18;;;;;;;;;;;;;;;14.54;100.00;102083.88;10499856;28;20290;-64
2023/08/10 06:17:20;;;;;;;;;;;;;;;14.64;100.00;102088.63;10500854;28;20019;-64
2023/08/10 06:22:23;;;;;;;;;;;;;;;14.77;100.00;102088.81;10500678;28;19931;-64
2023/08/10 06:27:26;;;;;;;;;;;;;;;14.94;100.00;102079.13;10499104;28;19928;-64
2023/08/10 06:32:29;;;;;;;;;;;;;;;15.16;100.00;102076.13;10500162;28;20379;-70
2023/08/10 06:37:32;;;;;;;;;;;;;;;15.48;100.00;102079.56;10499921;28;20431;-70
2023/08/10 06:42:35;;;;;;;;;;;;;;;15.78;100.00;102076.09;10499678;28;20023;-70
2023/08/10 06:47:38;;;;;;;;;;;;;;;16.03;100.00;102077.28;10499859;28;20012;-70
2023/08/10 06:52:41;;;;;;;;;;;;;;;16.32;94.03;102076.38;10499545;28;19931;-70
2023/08/10 06:57:44;;;;;;;;;;;;;;;16.35;89.45;102076.16;10498502;28;20337;-70
2023/08/10 07:02:50;;;;;;;;;;;;;;;16.56;88.36;102067.00;10499107;28;19932;-71
2023/08/10 07:07:52;;;;;;;;;;;;;;;16.63;92.26;102074.47;10499452;28;19925;-70
2023/08/10 07:12:54;;;;;;;;;;;;;;;16.81;93.66;102074.25;10481144;28;20379;-70
2023/08/10 07:17:57;;;;;;;;;;;;;;;16.84;95.39;102076.69;10498314;28;19924;-71
2023/08/10 07:22:59;;;;;;;;;;;;;;;17.13;93.10;102059.00;10499425;28;19928;-70
2023/08/10 07:28:02;;;;;;;;;;;;;;;17.93;86.71;102066.06;10498854;28;19925;-70
2023/08/10 07:33:04;;;;;;;;;;;;;;;18.72;78.38;102056.97;10497379;28;20372;-70
2023/08/10 07:38:06;;;;;;;;;;;;;;;18.86;70.11;102066.63;10497421;28;19966;-70
2023/08/10 07:43:09;;;;;;;;;;;;;;;19.27;69.09;102056.56;10498185;28;19924;-72
2023/08/10 07:48:11;;;;;;;;;;;;;;;19.24;68.98;102064.75;10498131;28;19924;-73
2023/08/10 07:53:13;;;;;;;;;;;;;;;19.44;63.20;102068.59;10497937;28;19932;-71
2023/08/10 07:58:16;;;;;;;;;;;;;;;19.42;58.49;102063.41;10497869;28;20298;-70
2023/08/10 08:03:18;;;;;;;;;;;;;;;19.82;60.44;102068.38;10497622;28;19924;-70
2023/08/10 08:08:20;;;;;;;;;;;;;;;20.06;60.24;102071.94;10499069;28;19930;-70
2023/08/10 08:13:23;;;;;;;;;;;;;;;20.78;60.19;102068.91;10505792;28;20007;-70
2023/08/10 08:18:40;;;;;;;;;;;;;;;21.05;58.76;102064.97;10505528;28;19950;-70
2023/08/10 08:23:43;;;;;;;;;;;;;;;20.69;59.56;102065.16;10506101;28;19924;-71
2023/08/10 08:28:45;;;;;;;;;;;;;;;21.34;58.33;102059.88;10503932;28;20384;-71
2023/08/10 08:33:48;;;;;;;;;;;;;;;20.87;56.28;102054.00;10505144;28;19924;-70
2023/08/10 08:38:50;;;;;;;;;;;;;;;21.63;56.36;102057.44;10504657;28;20343;-70
2023/08/10 08:43:52;;;;;;;;;;;;;;;21.82;54.89;102064.75;10504800;28;19956;-71
2023/08/10 08:48:55;;;;;;;;;;;;;;;21.60;56.58;102055.06;10503239;28;19924;-71
2023/08/10 08:54:00;;;;;;;;;;;;;;;22.37;55.75;102061.78;10504124;28;19938;-71
2023/08/10 08:59:02;;;;;;;;;;;;;;;22.70;54.89;102059.81;10502733;28;19925;-71
2023/08/10 09:04:04;;;;;;;;;;;;;;;23.30;56.22;102053.53;10504872;28;19952;-71
2023/08/10 09:09:07;;;;;;;;;;;;;;;23.11;57.00;102049.88;10503778;28;19931;-71
2023/08/10 09:14:09;;;;;;;;;;;;;;;23.58;54.99;102046.50;10502179;28;19924;-71
2023/08/10 09:19:14;;;;;;;;;;;;;;;23.29;53.78;102043.88;10501757;28;20020;-71
2023/08/10 09:24:17;;;;;;;;;;;;;;;22.78;54.28;102037.78;10501609;28;19947;-71
2023/08/10 09:29:28;;;;;;;;;;;;;;;23.03;54.29;102030.19;10502538;28;19924;-71
2023/08/10 09:34:30;;;;;;;;;;;;;;;22.89;55.89;102031.44;10501439;28;20451;-71
2023/08/10 09:39:33;;;;;;;;;;;;;;;23.16;56.92;102038.78;10501244;28;19924;-70
2023/08/10 09:44:47;;;;;;;;;;;;;;;23.28;55.39;102040.31;10481565;22;19925;-69
2023/08/10 09:49:54;;;;;;;;;;;;;;;24.76;52.84;102045.06;10443321;28;20015;-69
2023/08/10 09:54:56;;;;;;;;;;;;;;;24.55;53.99;102044.53;10460744;28;20008;-70
2023/08/10 09:59:59;;;;;;;;;;;;;;;23.53;54.92;102038.06;10460136;28;19947;-69
2023/08/10 10:05:01;;;;;;;;;;;;;;;22.90;57.16;102038.47;10460207;28;20392;-70
2023/08/10 10:10:04;;;;;;;;;;;;;;;23.50;55.32;102047.22;10460114;28;19925;-70
2023/08/10 10:15:06;;;;;;;;;;;;;;;22.36;60.02;102048.59;10442109;28;19925;-70
2023/08/10 10:20:11;;;;;;;;;;;;;;;23.06;59.75;102024.56;10442129;28;19931;-69
2023/08/10 10:25:16;;;;;;;;;;;;;;;23.08;58.28;102019.94;10425602;28;20339;-70
2023/08/10 10:30:21;;;;;;;;;;;;;;;23.36;58.10;102036.97;10441844;28;19925;-70
2023/08/10 10:35:24;;;;;;;;;;;;;;;22.93;56.06;102046.19;10441335;28;20284;-70
2023/08/10 10:40:27;;;;;;;;;;;;;;;23.28;58.67;102044.84;10440863;28;19967;-70
2023/08/10 10:45:36;;;;;;;;;;;;;;;24.22;56.42;102044.09;10458757;28;19968;-70
2023/08/10 10:50:39;;;;;;;;;;;;;;;24.90;52.06;102051.75;10440657;28;20011;-70
2023/08/10 10:55:42;;;;;;;;;;;;;;;23.80;57.73;102056.00;10440559;28;19925;-70
2023/08/10 11:00:44;;;;;;;;;;;;;;;25.88;53.53;102038.31;10440243;28;20297;-70
2023/08/10 11:05:50;;;;;;;;;;;;;;;26.46;51.63;102030.53;10457854;28;20015;-70
2023/08/10 11:10:55;;;;;;;;;;;;;;;27.60;49.87;102028.97;10457613;28;19931;-70
2023/08/10 11:15:58;;;;;;;;;;;;;;;27.71;48.34;102036.69;10440408;28;19925;-70
2023/08/10 11:21:00;;;;;;;;;;;;;;;26.18;49.75;102035.31;10457159;28;19925;-70
2023/08/10 11:26:02;;;;;;;;;;;;;;;27.27;49.90;102026.31;10457113;28;19924;-70
2023/08/10 11:31:05;;;;;;;;;;;;;;;28.73;46.83;102044.06;10439932;28;20360;-70
2023/08/10 11:36:10;;;;;;;;;;;;;;;27.25;48.28;102029.16;10439653;28;20369;-70
2023/08/10 11:41:12;;;;;;;;;;;;;;;28.25;47.93;102022.59;10456763;28;19925;-71
2023/08/10 11:46:15;;;;;;;;;;;;;;;27.76;44.84;102012.81;10450645;28;19931;-70
2023/08/10 11:51:18;;;;;;;;;;;;;;;27.46;47.49;102019.75;10470281;28;20024;-70
2023/08/10 11:56:20;;;;;;;;;;;;;;;26.24;48.82;102016.72;10470742;28;20407;-70
2023/08/10 12:01:22;;;;;;;;;;;;;;;27.16;47.20;102007.81;10452392;28;19931;-70
2023/08/10 12:06:25;;;;;;;;;;;;;;;27.70;48.78;102004.59;10470293;28;19959;-70
2023/08/10 12:11:27;;;;;;;;;;;;;;;27.88;47.49;102004.38;10470553;28;19936;-70
2023/08/10 12:16:29;;;;;;;;;;;;;;;28.01;46.00;101993.94;10470159;28;19931;-70
2023/08/10 12:21:31;;;;;;;;;;;;;;;28.40;48.07;101993.06;10469923;28;19929;-70
2023/08/10 12:26:34;;;;;;;;;;;;;;;28.70;47.12;101982.47;10452046;28;19924;-70
2023/08/10 12:31:36;;;;;;;;;;;;;;;28.13;48.82;101989.81;10469666;28;20002;-70
2023/08/10 12:36:39;;;;;;;;;;;;;;;28.62;46.32;101979.81;10451851;28;20035;-70
2023/08/10 12:41:41;;;;;;;;;;;;;;;27.95;47.49;101986.53;10469450;28;19925;-70
2023/08/10 12:46:43;;;;;;;;;;;;;;;28.87;47.15;101975.91;10469569;28;20016;-70
2023/08/10 12:51:45;;;;;;;;;;;;;;;28.40;47.28;101971.50;10469299;28;19925;-71
2023/08/10 12:56:48;;;;;;;;;;;;;;;27.98;44.95;101976.25;10464799;28;20382;-70
2023/08/10 13:01:53;;;;;;;;;;;;;;;28.04;46.03;101982.81;10462532;28;19929;-70
2023/08/10 13:06:55;;;;;;;;;;;;;;;29.88;45.44;101980.19;10462532;28;19967;-70
2023/08/10 13:11:58;;;;;;;;;;;;;;;29.17;49.33;101975.19;10462010;28;19929;-70
2023/08/10 13:17:00;;;;;;;;;;;;;;;27.13;48.20;101971.34;10462479;28;19924;-70
2023/08/10 13:22:06;;;;;;;;;;;;;;;29.30;48.33;101990.75;10443970;28;20419;-70
2023/08/10 13:27:08;;;;;;;;;;;;;;;28.57;45.97;101987.59;10444408;28;20038;-70
2023/08/10 13:32:11;;;;;;;;;;;;;;;28.00;45.02;101997.63;10443826;28;19925;-70
2023/08/10 13:37:14;;;;;;;;;;;;;;;29.46;43.80;101982.50;10461198;28;19925;-70
2023/08/10 13:42:17;;;;;;;;;;;;;;;28.45;48.14;101981.75;10443511;28;19931;-70
2023/08/10 13:47:19;;;;;;;;;;;;;;;29.38;47.69;101982.56;10443122;28;19947;-70
2023/08/10 13:52:24;;;;;;;;;;;;;;;29.10;48.02;101980.44;10461084;28;19928;-70
2023/08/10 13:57:27;;;;;;;;;;;;;;;30.05;44.85;101968.16;10442734;28;20385;-70
2023/08/10 14:02:29;;;;;;;;;;;;;;;29.35;47.10;101972.97;10460147;28;19931;-70
2023/08/10 14:07:31;;;;;;;;;;;;;;;31.07;44.89;101966.31;10459615;28;19925;-70
2023/08/10 14:12:33;;;;;;;;;;;;;;;29.89;42.53;101969.22;10459875;28;19924;-70
2023/08/10 14:17:36;;;;;;;;;;;;;;;30.11;45.04;101975.50;10459803;28;19932;-68
2023/08/10 14:22:38;;;;;;;;;;;;;;;29.33;45.88;101972.31;10459412;28;20039;-68
2023/08/10 14:27:40;;;;;;;;;;;;;;;29.93;45.66;101975.06;10459143;28;19925;-68
2023/08/10 14:32:43;;;;;;;;;;;;;;;30.49;46.16;101978.00;10459136;28;20019;-68
2023/08/10 14:37:45;;;;;;;;;;;;;;;27.94;47.09;101969.56;10424814;28;20372;-68
2023/08/10 14:42:47;;;;;;;;;;;;;;;28.27;49.44;101955.09;10458326;28;19940;-70
2023/08/10 14:47:57;;;;;;;;;;;;;;;28.83;45.10;101963.84;10458369;28;20371;-69
2023/08/10 14:52:59;;;;;;;;;;;;;;;27.17;47.18;101974.56;10440739;28;19947;-70
2023/08/10 14:58:01;;;;;;;;;;;;;;;28.69;49.35;101960.03;10458155;28;19925;-69
2023/08/10 15:03:04;;;;;;;;;;;;;;;28.80;46.31;101966.03;10458214;28;20279;-70
2023/08/10 15:08:08;;;;;;;;;;;;;;;29.77;47.14;101971.56;10457870;28;19925;-70
2023/08/10 15:13:10;;;;;;;;;;;;;;;28.61;46.25;101956.59;10439804;28;20011;-70
2023/08/10 15:18:13;;;;;;;;;;;;;;;27.58;51.83;101950.31;10438951;28;20036;-70
2023/08/10 15:23:16;;;;;;;;;;;;;;;27.71;48.38;101942.53;10457100;28;20304;-71
2023/08/10 15:28:38;;;;;;;;;;;;;;;26.78;52.27;101938.47;10443299;28;19929;-71
2023/08/10 15:33:41;;;;;;;;;;;;;;;26.43;53.56;101942.28;10457111;28;19964;-71
2023/08/10 15:38:44;;;;;;;;;;;;;;;28.74;48.00;101940.66;10457087;28;19925;-71
2023/08/10 15:43:46;;;;;;;;;;;;;;;26.51;52.12;101937.75;10456678;28;19925;-71
2023/08/10 15:48:48;;;;;;;;;;;;;;;28.09;47.61;101937.38;10456685;28;19929;-71
2023/08/10 15:53:50;;;;;;;;;;;;;;;28.43;49.35;101925.38;10456511;28;20372;-71
2023/08/10 15:58:54;;;;;;;;;;;;;;;27.40;49.04;101924.50;10456506;28;19931;-71
2023/08/10 16:03:59;;;;;;;;;;;;;;;27.96;48.57;101929.03;10457099;28;19951;-71
2023/08/10 16:09:02;;;;;;;;;;;;;;;28.43;50.40;101914.59;10438700;28;19971;-71
2023/08/10 16:14:05;;;;;;;;;;;;;;;27.97;50.59;101923.47;10438678;28;20024;-71
2023/08/10 16:19:07;;;;;;;;;;;;;;;27.53;50.60;101920.41;10456094;28;20401;-71
2023/08/10 16:24:10;;;;;;;;;;;;;;;27.23;50.53;101926.34;10455969;28;19925;-71
2023/08/10 16:29:12;;;;;;;;;;;;;;;26.66;50.81;101918.31;10457029;28;20352;-71
2023/08/10 16:34:14;;;;;;;;;;;;;;;26.59;53.88;101926.16;10463765;28;19932;-71
2023/08/10 16:39:16;;;;;;;;;;;;;;;27.23;50.84;101920.13;10445847;28;20375;-70
2023/08/10 16:44:19;;;;;;;;;;;;;;;27.39;50.60;101938.09;10463178;28;20011;-70
2023/08/10 16:49:21;;;;;;;;;;;;;;;26.33;54.83;101931.69;10463576;28;19956;-71
2023/08/10 16:54:23;;;;;;;;;;;;;;;26.15;52.90;101931.78;10463254;28;20457;-71
2023/08/10 16:59:26;;;;;;;;;;;;;;;25.85;54.80;101942.03;10462602;28;19931;-71
2023/08/10 17:04:28;;;;;;;;;;;;;;;26.01;55.71;101944.00;10462331;28;20317;-71
2023/08/10 17:09:31;;;;;;;;;;;;;;;24.69;54.56;101941.41;10462338;28;20015;-71
2023/08/10 17:14:33;;;;;;;;;;;;;;;25.42;58.74;101943.84;10462078;28;19925;-71
2023/08/10 17:19:35;;;;;;;;;;;;;;;24.94;60.87;101945.16;10444449;28;20024;-71
2023/08/10 17:24:38;;;;;;;;;;;;;;;24.60;61.65;101933.31;10461804;28;19929;-71
2023/08/10 17:29:41;;;;;;;;;;;;;;;23.92;60.21;101939.91;10461983;28;20303;-71
2023/08/10 17:34:44;;;;;;;;;;;;;;;23.03;66.02;101934.03;10443528;28;20283;-71
2023/08/10 17:39:46;;;;;;;;;;;;;;;22.56;68.55;101945.41;10461254;28;19932;-71
2023/08/10 17:44:50;;;;;;;;;;;;;;;22.58;71.84;101935.47;10442293;28;19968;-68
2023/08/10 17:49:52;;;;;;;;;;;;;;;22.57;72.51;101934.59;10460593;28;20003;-67
2023/08/10 17:54:55;;;;;;;;;;;;;;;21.95;77.28;101947.22;10460413;28;20447;-67
2023/08/10 17:59:59;;;;;;;;;;;;;;;21.77;78.50;101941.69;10460194;28;19928;-67
2023/08/10 18:05:01;;;;;;;;;;;;;;;21.48;83.64;101944.19;10460577;28;19931;-67
2023/08/10 18:10:03;;;;;;;;;;;;;;;21.30;83.63;101954.56;10459827;28;19940;-67
2023/08/10 18:15:06;;;;;;;;;;;;;;;21.20;84.88;101932.34;10459698;28;20368;-67
2023/08/10 18:20:09;;;;;;;;;;;;;;;20.85;89.56;101938.84;10459485;28;20303;-67
2023/08/10 18:25:11;;;;;;;;;;;;;;;21.00;87.47;101934.88;10459299;28;19925;-67
2023/08/10 18:30:15;;;;;;;;;;;;;;;20.78;89.62;101935.84;10459310;28;19950;-67
2023/08/10 18:35:19;;;;;;;;;;;;;;;20.71;88.40;101935.50;10458260;28;20225;-68
2023/08/10 18:40:21;;;;;;;;;;;;;;;20.58;88.68;101927.63;10458757;28;20023;-68
2023/08/10 18:45:23;;;;;;;;;;;;;;;20.33;90.22;101936.78;10441077;28;19925;-68
2023/08/10 18:50:26;;;;;;;;;;;;;;;20.26;90.77;101940.03;10458370;28;20020;-68
2023/08/10 18:55:28;;;;;;;;;;;;;;;20.06;92.13;101944.31;10458222;28;19925;-68
2023/08/10 19:00:31;;;;;;;;;;;;;;;19.83;93.62;101941.66;10457925;28;19967;-68
2023/08/10 19:05:33;;;;;;;;;;;;;;;19.66;95.35;101943.78;10457817;28;20371;-68
2023/08/10 19:10:35;;;;;;;;;;;;;;;19.43;97.77;101958.00;10457647;28;19925;-67
2023/08/10 19:15:38;;;;;;;;;;;;;;;19.44;96.53;101965.03;10457470;28;19931;-67
2023/08/10 19:20:40;;;;;;;;;;;;;;;19.19;99.36;101961.56;10457949;28;19925;-67
2023/08/10 19:25:42;;;;;;;;;;;;;;;18.98;99.66;101966.69;10440009;28;20008;-67
2023/08/10 19:30:46;;;;;;;;;;;;;;;18.86;100.00;101968.47;10439680;28;19925;-67
2023/08/10 19:35:51;;;;;;;;;;;;;;;18.75;100.00;101976.31;10457016;28;19929;-67
2023/08/10 19:40:53;;;;;;;;;;;;;;;18.53;100.00;101972.56;10456781;28;20358;-68
2023/08/10 19:45:56;;;;;;;;;;;;;;;18.52;100.00;101970.03;10457034;28;19931;-67
2023/08/10 19:50:58;;;;;;;;;;;;;;;18.65;100.00;101986.75;10456700;28;19925;-67
2023/08/10 19:56:00;;;;;;;;;;;;;;;18.44;100.00;101991.81;10456519;28;20257;-67
2023/08/10 20:01:03;;;;;;;;;;;;;;;18.45;100.00;101988.19;10456482;28;19931;-67
2023/08/10 20:06:06;;;;;;;;;;;;;;;18.41;100.00;101993.81;10443347;28;19955;-67
2023/08/10 20:11:08;;;;;;;;;;;;;;;18.12;100.00;102000.25;10464666;28;19924;-67
2023/08/10 20:16:10;;;;;;;;;;;;;;;18.17;100.00;102005.22;10464399;28;20016;-67
2023/08/10 20:21:13;;;;;;;;;;;;;;;18.11;100.00;102003.84;10464774;28;19928;-67
2023/08/10 20:26:17;;;;;;;;;;;;;;;18.03;100.00;101995.59;10464088;28;19924;-67
2023/08/10 20:31:21;;;;;;;;;;;;;;;17.90;100.00;101998.22;10463828;28;20380;-67
2023/08/10 20:36:23;;;;;;;;;;;;;;;17.91;100.00;102001.75;10463599;28;19925;-67
2023/08/10 20:41:26;;;;;;;;;;;;;;;17.79;100.00;102011.38;10463707;28;19925;-67
2023/08/10 20:46:28;;;;;;;;;;;;;;;17.63;100.00;102006.25;10445936;28;20406;-67
2023/08/10 20:51:30;;;;;;;;;;;;;;;17.56;100.00;102000.53;10462999;28;19925;-67
2023/08/10 20:56:33;;;;;;;;;;;;;;;17.57;100.00;102012.00;10462992;28;19925;-67
2023/08/10 21:01:35;;;;;;;;;;;;;;;17.64;100.00;102013.25;10462523;28;20287;-67
2023/08/10 21:06:37;;;;;;;;;;;;;;;17.56;100.00;102023.53;10462695;28;19932;-67
2023/08/10 21:11:40;;;;;;;;;;;;;;;17.31;100.00;102011.09;10462189;28;20390;-67
2023/08/10 21:16:42;;;;;;;;;;;;;;;17.44;100.00;102019.91;10461002;28;19927;-67
2023/08/10 21:21:44;;;;;;;;;;;;;;;17.22;100.00;102012.53;10444419;28;19925;-67
2023/08/10 21:26:46;;;;;;;;;;;;;;;17.35;100.00;102010.78;10461751;28;19924;-67
2023/08/10 21:31:49;;;;;;;;;;;;;;;17.33;100.00;102012.69;10461588;28;19932;-67
2023/08/10 21:36:51;;;;;;;;;;;;;;;17.22;100.00;101999.31;10443799;28;19968;-67
2023/08/10 21:41:53;;;;;;;;;;;;;;;17.25;100.00;102004.41;10460674;28;19925;-68
2023/08/10 21:46:56;;;;;;;;;;;;;;;17.34;100.00;102002.94;10461051;28;19932;-67
2023/08/10 21:51:58;;;;;;;;;;;;;;;17.19;100.00;102013.59;10460645;28;19925;-67
2023/08/10 21:57:00;;;;;;;;;;;;;;;17.08;100.00;102009.00;10474358;22;19925;-75
2023/08/10 22:02:04;;;;;;;;;;;;;;;17.02;100.00;102012.06;10460354;28;19978;-75
2023/08/10 22:07:06;;;;;;;;;;;;;;;17.04;100.00;101996.91;10460853;28;19929;-74
2023/08/10 22:12:10;;;;;;;;;;;;;;;17.01;100.00;101999.78;10460459;28;19968;-74
2023/08/10 22:17:12;;;;;;;;;;;;;;;17.01;100.00;101993.63;10459772;28;19932;-75
2023/08/10 22:22:14;;;;;;;;;;;;;;;17.05;100.00;101995.97;10459444;28;20291;-74
2023/08/10 22:27:17;;;;;;;;;;;;;;;17.04;100.00;101990.78;10441311;28;19931;-74
2023/08/10 22:32:19;;;;;;;;;;;;;;;16.98;100.00;101988.53;10459343;28;20450;-75
2023/08/10 22:37:21;;;;;;;;;;;;;;;16.93;100.00;101988.00;10441287;28;20007;-74
2023/08/10 22:42:24;;;;;;;;;;;;;;;17.03;100.00;101992.59;10458604;28;20404;-75
2023/08/10 22:47:26;;;;;;;;;;;;;;;16.80;100.00;101990.56;10459009;28;19935;-74
2023/08/10 22:52:28;;;;;;;;;;;;;;;16.83;100.00;101985.94;10458752;28;19975;-75
2023/08/10 22:57:30;;;;;;;;;;;;;;;16.88;100.00;101991.78;10458276;28;20008;-75
2023/08/10 23:02:33;;;;;;;;;;;;;;;16.79;100.00;101987.06;10457921;28;20382;-74
2023/08/10 23:07:35;;;;;;;;;;;;;;;16.86;100.00;101984.91;10440427;28;19925;-75
2023/08/10 23:12:37;;;;;;;;;;;;;;;16.92;100.00;101981.03;10457697;28;19964;-74
2023/08/10 23:17:40;;;;;;;;;;;;;;;16.81;100.00;101971.97;10457438;28;20390;-75
2023/08/10 23:22:42;;;;;;;;;;;;;;;16.92;100.00;101975.72;10457260;28;19982;-75
2023/08/10 23:27:45;;;;;;;;;;;;;;;16.68;100.00;101971.06;10439587;28;19932;-75
2023/08/10 23:32:47;;;;;;;;;;;;;;;16.80;100.00;101977.34;10456992;28;20279;-75
2023/08/10 23:37:49;;;;;;;;;;;;;;;16.65;100.00;101968.59;10457059;28;19925;-74
2023/08/10 23:42:52;;;;;;;;;;;;;;;16.56;100.00;101972.69;10438710;28;20008;-75
2023/08/10 23:47:54;;;;;;;;;;;;;;;16.50;100.00;101963.34;10456756;28;20024;-74
2023/08/10 23:52:57;;;;;;;;;;;;;;;16.53;100.00;101968.44;10439159;28;19971;-74
2023/08/10 23:58:00;;;;;;;;;;;;;;;16.46;100.00;101961.84;10456812;28;19931;-74
